createdAt,value
2023-02-17T00:01:10.892Z,14.45
2023-02-17T00:03:37.640Z,14.47
2023-02-17T00:06:09.789Z,14.47
2023-02-17T00:08:36.945Z,14.47
2023-02-17T00:11:03.770Z,14.46
2023-02-17T00:13:30.308Z,14.46
2023-02-17T00:15:57.105Z,14.46
2023-02-17T00:18:23.986Z,14.46
2023-02-17T00:20:50.931Z,14.45
2023-02-17T00:23:18.083Z,14.46
2023-02-17T00:25:44.822Z,14.46
2023-02-17T00:28:11.454Z,14.45
2023-02-17T00:30:39.364Z,14.46
2023-02-17T00:33:06.474Z,14.49
2023-02-17T00:35:33.313Z,14.48
2023-02-17T00:38:00.064Z,14.49
2023-02-17T00:40:26.707Z,14.49
2023-02-17T00:42:55.010Z,14.51
2023-02-17T00:45:21.906Z,14.53
2023-02-17T00:47:48.861Z,14.53
2023-02-17T00:50:21.428Z,14.54
2023-02-17T00:52:47.968Z,14.57
2023-02-17T00:55:14.499Z,14.55
2023-02-17T00:57:41.133Z,14.55
2023-02-17T01:00:09.307Z,14.55
2023-02-17T01:02:35.949Z,14.56
2023-02-17T01:05:04.145Z,14.56
2023-02-17T01:07:30.648Z,14.57
2023-02-17T01:09:57.351Z,14.57
2023-02-17T01:12:23.957Z,14.57
2023-02-17T01:14:51.687Z,14.57
2023-02-17T01:17:18.303Z,14.57
2023-02-17T01:19:44.805Z,14.57
2023-02-17T01:22:11.495Z,14.58
2023-02-17T01:24:39.154Z,14.57
2023-02-17T01:27:05.895Z,14.57
2023-02-17T01:29:32.633Z,14.58
2023-02-17T01:31:59.246Z,14.58
2023-02-17T01:34:27.236Z,14.59
2023-02-17T01:36:53.869Z,14.59
2023-02-17T01:39:20.511Z,14.57
2023-02-17T01:41:47.359Z,14.58
2023-02-17T01:44:20.433Z,14.59
2023-02-17T01:46:50.825Z,14.58
2023-02-17T01:49:31.115Z,14.59
2023-02-17T01:52:18.437Z,14.59
2023-02-17T01:55:07.761Z,14.58
2023-02-17T01:57:37.917Z,14.57
2023-02-17T02:00:08.347Z,14.59
2023-02-17T02:02:42.030Z,14.59
2023-02-17T02:05:10.124Z,14.59
2023-02-17T02:07:41.565Z,14.59
2023-02-17T02:10:09.842Z,14.59
2023-02-17T02:12:38.942Z,14.58
2023-02-17T02:15:09.778Z,14.58
2023-02-17T02:17:49.417Z,14.59
2023-02-17T02:20:37.666Z,14.60
2023-02-17T02:23:25.388Z,14.58
2023-02-17T02:26:15.885Z,14.56
2023-02-17T02:29:25.118Z,14.52
2023-02-17T02:32:01.990Z,14.52
2023-02-17T02:34:54.437Z,14.49
2023-02-17T02:37:36.741Z,14.48
2023-02-17T02:40:07.581Z,14.46
2023-02-17T02:42:36.160Z,14.46
2023-02-17T02:45:07.521Z,14.45
2023-02-17T02:47:45.204Z,14.44
2023-02-17T02:50:19.318Z,14.44
2023-02-17T02:52:56.909Z,14.43
2023-02-17T02:55:44.329Z,14.42
2023-02-17T02:58:36.264Z,14.41
2023-02-17T03:01:21.852Z,14.41
2023-02-17T03:04:31.852Z,14.41
2023-02-17T03:07:09.386Z,14.40
2023-02-17T03:09:36.637Z,14.38
2023-02-17T03:12:05.016Z,14.35
2023-02-17T03:14:37.583Z,14.33
2023-02-17T03:17:04.325Z,14.32
2023-02-17T03:19:31.084Z,14.32
2023-02-17T03:22:08.012Z,14.30
2023-02-17T03:24:35.293Z,14.32
2023-02-17T03:27:02.124Z,14.31
2023-02-17T03:29:28.773Z,14.31
2023-02-17T03:31:55.982Z,14.32
2023-02-17T03:34:22.556Z,14.34
2023-02-17T03:36:49.188Z,14.32
2023-02-17T03:39:16.652Z,14.32
2023-02-17T03:41:43.311Z,14.31
2023-02-17T03:44:10.032Z,14.29
2023-02-17T03:46:39.936Z,14.30
2023-02-17T03:49:06.471Z,14.29
2023-02-17T03:51:33.113Z,14.27
2023-02-17T03:53:59.640Z,14.29
2023-02-17T03:56:27.504Z,14.32
2023-02-17T03:58:57.214Z,14.32
2023-02-17T04:01:24.562Z,14.34
2023-02-17T04:03:51.674Z,14.35
2023-02-17T04:06:18.357Z,14.35
2023-02-17T04:08:44.924Z,14.35
2023-02-17T04:11:11.728Z,14.35
2023-02-17T04:13:38.461Z,14.34
2023-02-17T04:16:06.898Z,14.34
2023-02-17T04:18:34.408Z,14.34
2023-02-17T04:21:01.340Z,14.34
2023-02-17T04:23:28.285Z,14.35
2023-02-17T04:25:55.024Z,14.35
2023-02-17T04:28:22.584Z,14.34
2023-02-17T04:30:51.322Z,14.32
2023-02-17T04:33:18.418Z,14.33
2023-02-17T04:35:47.627Z,14.33
2023-02-17T04:38:14.255Z,14.33
2023-02-17T04:40:42.739Z,14.33
2023-02-17T04:43:09.685Z,14.32
2023-02-17T04:45:37.677Z,14.33
2023-02-17T04:48:04.378Z,14.33
2023-02-17T04:50:31.019Z,14.32
2023-02-17T04:52:57.774Z,14.35
2023-02-17T04:55:24.386Z,14.35
2023-02-17T04:57:51.025Z,14.34
2023-02-17T05:00:17.868Z,14.34
2023-02-17T05:02:44.503Z,14.33
2023-02-17T05:05:15.303Z,14.33
2023-02-17T05:07:43.111Z,14.33
2023-02-17T05:10:09.953Z,14.34
2023-02-17T05:12:36.678Z,14.33
2023-02-17T05:15:04.548Z,14.34
2023-02-17T05:17:31.182Z,14.35
2023-02-17T05:19:58.234Z,14.35
2023-02-17T05:22:25.169Z,14.36
2023-02-17T05:24:51.810Z,14.36
2023-02-17T05:27:19.057Z,14.36
2023-02-17T05:29:46.102Z,14.35
2023-02-17T05:32:13.251Z,14.36
2023-02-17T05:34:40.001Z,14.35
2023-02-17T05:37:06.532Z,14.36
2023-02-17T05:39:33.065Z,14.34
2023-02-17T05:41:59.598Z,14.33
2023-02-17T05:44:26.333Z,14.33
2023-02-17T05:46:53.025Z,14.32
2023-02-17T05:49:19.606Z,14.33
2023-02-17T05:51:46.246Z,14.32
2023-02-17T05:54:13.805Z,14.34
2023-02-17T05:56:40.551Z,14.33
2023-02-17T05:59:07.159Z,14.32
2023-02-17T06:01:34.426Z,14.32
2023-02-17T06:04:02.192Z,14.32
2023-02-17T06:06:28.979Z,14.32
2023-02-17T06:08:55.577Z,14.33
2023-02-17T06:11:22.205Z,14.32
2023-02-17T06:13:48.739Z,14.32
2023-02-17T06:16:15.305Z,14.31
2023-02-17T06:18:41.919Z,14.30
2023-02-17T06:21:08.459Z,14.32
2023-02-17T06:23:50.136Z,14.29
2023-02-17T06:26:18.551Z,14.30
2023-02-17T06:28:45.453Z,14.29
2023-02-17T06:31:12.207Z,14.29
2023-02-17T06:33:38.826Z,14.28
2023-02-17T06:36:06.113Z,14.27
2023-02-17T06:38:32.829Z,14.28
2023-02-17T06:40:59.757Z,14.29
2023-02-17T06:43:26.300Z,14.28
2023-02-17T06:45:52.878Z,14.28
2023-02-17T06:48:19.465Z,14.28
2023-02-17T06:50:46.101Z,14.29
2023-02-17T06:53:12.632Z,14.29
2023-02-17T06:55:39.647Z,14.30
2023-02-17T06:58:07.356Z,14.29
2023-02-17T07:00:34.079Z,14.30
2023-02-17T07:03:00.944Z,14.32
2023-02-17T07:05:27.663Z,14.34
2023-02-17T07:07:57.676Z,14.36
2023-02-17T07:10:24.317Z,14.38
2023-02-17T07:12:51.780Z,14.39
2023-02-17T07:15:18.619Z,14.39
2023-02-17T07:17:45.249Z,14.39
2023-02-17T07:20:12.719Z,14.41
2023-02-17T07:22:39.548Z,14.41
2023-02-17T07:25:06.692Z,14.42
2023-02-17T07:27:36.609Z,14.41
2023-02-17T07:30:04.516Z,14.43
2023-02-17T07:32:31.111Z,14.44
2023-02-17T07:34:57.755Z,14.46
2023-02-17T07:37:24.389Z,14.47
2023-02-17T07:39:52.472Z,14.50
2023-02-17T07:42:19.085Z,14.51
2023-02-17T07:44:49.818Z,14.51
2023-02-17T07:47:16.558Z,14.50
2023-02-17T07:49:43.210Z,14.52
2023-02-17T07:52:09.829Z,14.51
2023-02-17T07:54:36.581Z,14.52
2023-02-17T07:57:03.240Z,14.53
2023-02-17T07:59:29.953Z,14.55
2023-02-17T08:01:56.708Z,14.57
2023-02-17T08:04:23.365Z,14.60
2023-02-17T08:06:51.191Z,14.63
2023-02-17T08:09:36.458Z,14.67
2023-02-17T08:12:35.245Z,14.71
2023-02-17T08:15:02.204Z,14.73
2023-02-17T08:17:29.346Z,14.75
2023-02-17T08:19:56.180Z,14.77
2023-02-17T08:22:22.814Z,14.80
2023-02-17T08:24:49.475Z,14.81
2023-02-17T08:27:16.848Z,14.83
2023-02-17T08:29:44.157Z,14.85
2023-02-17T08:32:11.189Z,14.88
2023-02-17T08:34:37.941Z,14.90
2023-02-17T08:37:06.548Z,14.93
2023-02-17T08:39:34.069Z,14.97
2023-02-17T08:42:01.282Z,15.00
2023-02-17T08:44:27.871Z,15.02
2023-02-17T08:46:54.924Z,15.06
2023-02-17T08:49:24.526Z,15.08
2023-02-17T08:51:52.298Z,15.11
2023-02-17T08:54:19.030Z,15.15
2023-02-17T08:56:45.769Z,15.19
2023-02-17T08:59:12.925Z,15.23
2023-02-17T09:01:40.225Z,15.26
2023-02-17T09:04:08.552Z,15.31
2023-02-17T09:06:42.470Z,15.31
2023-02-17T09:09:12.014Z,15.34
2023-02-17T09:11:38.818Z,15.36
2023-02-17T09:14:06.995Z,15.36
2023-02-17T09:16:33.831Z,15.37
2023-02-17T09:19:00.444Z,15.37
2023-02-17T09:21:27.078Z,15.38
2023-02-17T09:23:54.029Z,15.38
2023-02-17T09:26:21.128Z,15.41
2023-02-17T09:28:48.015Z,15.43
2023-02-17T09:31:20.263Z,15.44
2023-02-17T09:33:48.368Z,15.46
2023-02-17T09:36:18.565Z,15.48
2023-02-17T09:38:45.207Z,15.50
2023-02-17T09:41:27.013Z,15.54
2023-02-17T09:43:55.176Z,15.57
2023-02-17T09:47:00.511Z,15.61
2023-02-17T09:49:35.062Z,15.66
2023-02-17T09:52:15.578Z,15.69
2023-02-17T09:55:04.377Z,15.70
2023-02-17T09:57:37.740Z,15.70
2023-02-17T10:00:12.642Z,15.71
2023-02-17T10:03:02.059Z,15.71
2023-02-17T10:05:36.474Z,15.74
2023-02-17T10:08:09.474Z,15.74
2023-02-17T10:10:46.876Z,15.75
2023-02-17T10:13:18.027Z,15.78
2023-02-17T10:15:49.295Z,15.79
2023-02-17T10:19:05.634Z,15.82
2023-02-17T10:21:39.352Z,15.88
2023-02-17T10:24:06.120Z,15.93
2023-02-17T10:26:57.595Z,15.96
2023-02-17T10:29:43.093Z,16.01
2023-02-17T10:32:24.991Z,16.05
2023-02-17T10:35:22.848Z,16.11
2023-02-17T10:37:55.370Z,16.15
2023-02-17T10:40:25.418Z,16.19
2023-02-17T10:42:57.687Z,16.24
2023-02-17T10:46:12.144Z,16.30
2023-02-17T10:48:47.085Z,16.37
2023-02-17T10:51:16.783Z,16.39
2023-02-17T10:53:49.284Z,16.39
2023-02-17T10:56:28.897Z,16.39
2023-02-17T10:59:03.019Z,16.37
2023-02-17T11:01:29.855Z,16.35
2023-02-17T11:04:06.300Z,16.34
2023-02-17T11:06:37.983Z,16.33
2023-02-17T11:09:09.237Z,16.32
2023-02-17T11:11:36.890Z,16.31
2023-02-17T11:14:14.482Z,16.33
2023-02-17T11:16:54.729Z,16.34
2023-02-17T11:19:36.215Z,16.33
2023-02-17T11:22:06.228Z,16.32
2023-02-17T11:24:34.913Z,16.29
2023-02-17T11:27:10.559Z,16.28
2023-02-17T11:29:37.664Z,16.29
2023-02-17T11:32:08.994Z,16.30
2023-02-17T11:34:39.556Z,16.31
2023-02-17T11:37:12.102Z,16.32
2023-02-17T11:39:41.464Z,16.33
2023-02-17T11:42:28.381Z,16.33
2023-02-17T11:44:57.570Z,16.36
2023-02-17T11:47:43.968Z,16.37
2023-02-17T11:50:40.094Z,16.42
2023-02-17T11:53:28.637Z,16.43
2023-02-17T11:56:33.379Z,16.45
2023-02-17T11:59:14.896Z,16.46
2023-02-17T12:01:44.566Z,16.47
2023-02-17T12:04:29.744Z,16.50
2023-02-17T12:07:05.176Z,16.52
2023-02-17T12:09:48.404Z,16.54
2023-02-17T12:12:40.948Z,16.52
2023-02-17T12:15:32.583Z,16.53
2023-02-17T12:18:20.507Z,16.49
2023-02-17T12:21:05.569Z,16.47
2023-02-17T12:23:45.657Z,16.45
2023-02-17T12:26:37.755Z,16.44
2023-02-17T12:29:04.391Z,16.46
2023-02-17T12:31:55.538Z,16.45
2023-02-17T12:34:55.723Z,16.45
2023-02-17T12:37:28.915Z,16.45
2023-02-17T12:40:03.860Z,16.45
2023-02-17T12:42:35.706Z,16.44
2023-02-17T12:45:18.730Z,16.44
2023-02-17T12:47:54.694Z,16.45
2023-02-17T12:50:27.446Z,16.47
2023-02-17T12:52:57.579Z,16.47
2023-02-17T12:55:50.639Z,16.45
2023-02-17T12:58:28.443Z,16.47
2023-02-17T13:01:06.164Z,16.44
2023-02-17T13:03:35.641Z,16.41
2023-02-17T13:06:11.387Z,16.39
2023-02-17T13:08:44.480Z,16.36
2023-02-17T13:11:13.983Z,16.36
2023-02-17T13:13:40.717Z,16.34
2023-02-17T13:16:13.659Z,16.34
2023-02-17T13:18:43.435Z,16.33
2023-02-17T13:21:31.873Z,16.32
2023-02-17T13:24:07.610Z,16.33
2023-02-17T13:26:38.967Z,16.33
2023-02-17T13:29:24.130Z,16.32
2023-02-17T13:31:50.845Z,16.34
2023-02-17T13:34:46.179Z,16.32
2023-02-17T13:37:37.092Z,16.30
2023-02-17T13:40:25.427Z,16.30
2023-02-17T13:42:54.415Z,16.30
2023-02-17T13:45:28.505Z,16.29
2023-02-17T13:48:00.795Z,16.27
2023-02-17T13:50:36.245Z,16.26
2023-02-17T13:53:21.191Z,16.26
2023-02-17T13:55:48.033Z,16.25
2023-02-17T13:58:14.575Z,16.26
2023-02-17T14:00:43.893Z,16.25
2023-02-17T14:03:28.848Z,16.21
2023-02-17T14:05:57.951Z,16.21
2023-02-17T14:08:39.434Z,16.17
2023-02-17T14:11:14.872Z,16.16
2023-02-17T14:13:47.591Z,16.13
2023-02-17T14:16:34.962Z,16.11
2023-02-17T14:19:09.247Z,16.12
2023-02-17T14:21:38.286Z,16.12
2023-02-17T14:24:05.423Z,16.13
2023-02-17T14:26:39.737Z,16.13
2023-02-17T14:29:09.137Z,16.15
2023-02-17T14:31:39.940Z,16.14
2023-02-17T14:34:07.777Z,16.17
2023-02-17T14:36:37.302Z,16.18
2023-02-17T14:39:07.261Z,16.19
2023-02-17T14:41:34.608Z,16.19
2023-02-17T14:44:01.450Z,16.22
2023-02-17T14:46:28.176Z,16.24
2023-02-17T14:48:55.234Z,16.27
2023-02-17T14:51:25.767Z,16.29
2023-02-17T14:53:53.017Z,16.30
2023-02-17T14:56:27.740Z,16.31
2023-02-17T14:58:54.383Z,16.31
2023-02-17T15:01:23.030Z,16.30
2023-02-17T15:03:50.052Z,16.29
2023-02-17T15:06:28.809Z,16.27
2023-02-17T15:08:56.658Z,16.28
2023-02-17T15:11:37.362Z,16.27
2023-02-17T15:14:04.911Z,16.27
2023-02-17T15:16:31.799Z,16.29
2023-02-17T15:18:58.501Z,16.27
2023-02-17T15:21:33.940Z,16.26
2023-02-17T15:24:01.581Z,16.29
2023-02-17T15:26:30.598Z,16.30
2023-02-17T15:28:58.161Z,16.27
2023-02-17T15:31:29.964Z,16.25
2023-02-17T15:33:58.903Z,16.24
2023-02-17T15:36:26.465Z,16.24
2023-02-17T15:38:53.191Z,16.23
2023-02-17T15:41:24.236Z,16.25
2023-02-17T15:43:51.586Z,16.26
2023-02-17T15:46:20.396Z,16.27
2023-02-17T15:48:52.340Z,16.29
2023-02-17T15:51:19.993Z,16.29
2023-02-17T15:53:47.857Z,16.31
2023-02-17T15:56:22.169Z,16.30
2023-02-17T15:58:50.454Z,16.30
2023-02-17T16:01:29.208Z,16.29
2023-02-17T16:03:57.413Z,16.30
2023-02-17T16:06:25.329Z,16.30
2023-02-17T16:08:52.128Z,16.31
2023-02-17T16:11:21.348Z,16.30
2023-02-17T16:13:48.808Z,16.29
2023-02-17T16:16:19.283Z,16.28
2023-02-17T16:18:49.355Z,16.26
2023-02-17T16:21:16.600Z,16.25
2023-02-17T16:23:43.852Z,16.22
2023-02-17T16:26:17.558Z,16.19
2023-02-17T16:28:45.643Z,16.18
2023-02-17T16:31:12.394Z,16.17
2023-02-17T16:33:39.101Z,16.16
2023-02-17T16:36:13.828Z,16.16
2023-02-17T16:38:40.983Z,16.14
2023-02-17T16:41:07.922Z,16.13
2023-02-17T16:43:34.560Z,16.12
2023-02-17T16:46:04.821Z,16.11
2023-02-17T16:48:34.260Z,16.09
2023-02-17T16:51:01.534Z,16.07
2023-02-17T16:53:28.590Z,16.07
2023-02-17T16:55:56.245Z,16.05
2023-02-17T16:58:24.927Z,16.04
2023-02-17T17:00:53.929Z,16.03
2023-02-17T17:03:24.382Z,16.02
2023-02-17T17:05:52.712Z,16.03
2023-02-17T17:08:21.580Z,16.04
2023-02-17T17:10:49.554Z,16.04
2023-02-17T17:13:16.618Z,16.05
2023-02-17T17:15:45.258Z,16.05
2023-02-17T17:18:21.555Z,16.04
2023-02-17T17:20:48.817Z,16.06
2023-02-17T17:23:15.975Z,16.05
2023-02-17T17:25:46.846Z,16.04
2023-02-17T17:28:15.684Z,16.02
2023-02-17T17:30:42.531Z,16.02
2023-02-17T17:33:09.063Z,16.01
2023-02-17T17:35:36.525Z,16.01
2023-02-17T17:38:03.155Z,16.02
2023-02-17T17:40:32.963Z,16.01
2023-02-17T17:42:59.905Z,16.02
2023-02-17T17:45:26.655Z,16.01
2023-02-17T17:47:53.383Z,16.02
2023-02-17T17:50:23.210Z,16.01
2023-02-17T17:52:49.937Z,16.00
2023-02-17T17:55:16.781Z,15.98
2023-02-17T17:57:43.423Z,15.97
2023-02-17T18:00:14.057Z,15.97
2023-02-17T18:02:43.756Z,15.97
2023-02-17T18:05:11.014Z,15.97
2023-02-17T18:07:38.552Z,15.98
2023-02-17T18:10:07.260Z,16.00
2023-02-17T18:12:34.192Z,16.00
2023-02-17T18:15:02.985Z,15.99
2023-02-17T18:17:33.711Z,15.97
2023-02-17T18:20:00.366Z,15.96
2023-02-17T18:22:27.091Z,15.95
2023-02-17T18:24:53.902Z,15.94
2023-02-17T18:27:20.589Z,15.94
2023-02-17T18:29:47.200Z,15.93
2023-02-17T18:32:13.890Z,15.91
2023-02-17T18:34:40.396Z,15.89
2023-02-17T18:37:08.169Z,15.89
2023-02-17T18:39:34.819Z,15.88
2023-02-17T18:42:01.404Z,15.88
2023-02-17T18:44:28.039Z,15.86
2023-02-17T18:46:54.683Z,15.85
2023-02-17T18:49:21.416Z,15.84
2023-02-17T18:51:48.048Z,15.84
2023-02-17T18:54:15.299Z,15.83
2023-02-17T18:56:41.953Z,15.81
2023-02-17T18:59:08.582Z,15.80
2023-02-17T19:01:39.473Z,15.80
2023-02-17T19:04:06.868Z,15.80
2023-02-17T19:06:34.924Z,15.78
2023-02-17T19:09:04.139Z,15.76
2023-02-17T19:11:32.195Z,15.75
2023-02-17T19:14:00.778Z,15.74
2023-02-17T19:16:29.414Z,15.73
2023-02-17T19:18:56.720Z,15.72
2023-02-17T19:21:23.558Z,15.72
2023-02-17T19:23:51.322Z,15.72
2023-02-17T19:26:18.898Z,15.72
2023-02-17T19:28:46.228Z,15.71
2023-02-17T19:31:15.916Z,15.70
2023-02-17T19:33:44.315Z,15.68
2023-02-17T19:36:14.022Z,15.68
2023-02-17T19:38:40.661Z,15.65
2023-02-17T19:41:09.557Z,15.64
2023-02-17T19:43:36.293Z,15.62
2023-02-17T19:46:03.980Z,15.57
2023-02-17T19:48:30.592Z,15.54
2023-02-17T19:51:03.288Z,15.53
2023-02-17T19:53:31.650Z,15.54
2023-02-17T19:56:11.338Z,15.51
2023-02-17T19:58:38.957Z,15.49
2023-02-17T20:01:20.261Z,15.45
2023-02-17T20:03:47.380Z,15.43
2023-02-17T20:06:17.396Z,15.40
2023-02-17T20:08:45.466Z,15.37
2023-02-17T20:11:12.414Z,15.34
2023-02-17T20:13:45.818Z,15.30
2023-02-17T20:16:14.814Z,15.29
2023-02-17T20:18:44.751Z,15.24
2023-02-17T20:21:14.417Z,15.22
2023-02-17T20:23:41.163Z,15.22
2023-02-17T20:26:10.442Z,15.21
2023-02-17T20:28:37.597Z,15.19
2023-02-17T20:31:05.624Z,15.17
2023-02-17T20:33:32.597Z,15.17
2023-02-17T20:35:59.251Z,15.18
2023-02-17T20:38:25.785Z,15.19
2023-02-17T20:40:52.522Z,15.20
2023-02-17T20:43:20.291Z,15.21
2023-02-17T20:45:49.278Z,15.25
2023-02-17T20:48:16.225Z,15.30
2023-02-17T20:50:43.587Z,15.34
2023-02-17T20:53:10.213Z,15.39
2023-02-17T20:55:37.064Z,15.41
2023-02-17T20:58:04.101Z,15.45
2023-02-17T21:00:30.994Z,15.50
2023-02-17T21:02:57.838Z,15.55
2023-02-17T21:05:26.297Z,15.61
2023-02-17T21:07:53.311Z,15.65
2023-02-17T21:10:27.428Z,15.70
2023-02-17T21:12:54.906Z,15.77
2023-02-17T21:15:22.336Z,15.78
2023-02-17T21:17:49.578Z,15.80
2023-02-17T21:20:19.402Z,15.83
2023-02-17T21:22:46.447Z,15.86
2023-02-17T21:25:13.386Z,15.88
2023-02-17T21:27:40.022Z,15.92
2023-02-17T21:30:08.545Z,15.96
2023-02-17T21:32:35.307Z,15.98
2023-02-17T21:35:02.091Z,15.96
2023-02-17T21:37:28.922Z,15.93
2023-02-17T21:39:55.594Z,15.92
2023-02-17T21:42:44.639Z,15.91
2023-02-17T21:45:12.483Z,15.90
2023-02-17T21:47:39.138Z,15.92
2023-02-17T21:50:06.488Z,15.91
2023-02-17T21:52:33.047Z,15.89
2023-02-17T21:55:01.156Z,15.83
2023-02-17T21:57:27.815Z,15.81
2023-02-17T21:59:54.352Z,15.81
2023-02-17T22:02:20.999Z,15.83
2023-02-17T22:04:47.620Z,15.81
2023-02-17T22:07:14.257Z,15.78
2023-02-17T22:09:40.790Z,15.76
2023-02-17T22:12:07.533Z,15.73
2023-02-17T22:14:34.167Z,15.74
2023-02-17T22:17:01.116Z,15.76
2023-02-17T22:19:31.285Z,15.74
2023-02-17T22:21:58.193Z,15.77
2023-02-17T22:24:27.432Z,15.76
2023-02-17T22:26:54.514Z,15.76
2023-02-17T22:29:21.054Z,15.74
2023-02-17T22:31:50.459Z,15.72
2023-02-17T22:34:17.300Z,15.71
2023-02-17T22:36:44.054Z,15.72
2023-02-17T22:39:10.669Z,15.70
2023-02-17T22:41:38.779Z,15.71
2023-02-17T22:44:05.546Z,15.71
2023-02-17T22:46:32.280Z,15.69
2023-02-17T22:48:59.480Z,15.66
2023-02-17T22:51:29.485Z,15.64
2023-02-17T22:53:58.406Z,15.64
2023-02-17T22:56:25.221Z,15.63
2023-02-17T22:58:55.952Z,15.60
2023-02-17T23:01:23.514Z,15.57
2023-02-17T23:03:54.450Z,15.59
2023-02-17T23:06:29.632Z,15.57
2023-02-17T23:08:57.038Z,15.56
2023-02-17T23:11:45.787Z,15.54
2023-02-17T23:14:14.074Z,15.50
2023-02-17T23:16:41.203Z,15.48
2023-02-17T23:19:09.719Z,15.47
2023-02-17T23:21:37.154Z,15.49
2023-02-17T23:24:04.196Z,15.51
2023-02-17T23:26:30.728Z,15.51
2023-02-17T23:28:57.344Z,15.52
2023-02-17T23:31:23.999Z,15.54
2023-02-17T23:33:50.742Z,15.53
2023-02-17T23:36:17.496Z,15.51
2023-02-17T23:38:44.014Z,15.51
2023-02-17T23:41:10.961Z,15.53
2023-02-17T23:43:37.598Z,15.54
2023-02-17T23:46:04.462Z,15.53
2023-02-17T23:48:31.076Z,15.52
2023-02-17T23:51:03.855Z,15.50
2023-02-17T23:53:31.618Z,15.50
2023-02-17T23:56:11.157Z,15.47
2023-02-17T23:58:37.799Z,15.47
